createdAt,value
2022-12-12T00:01:39.888Z,38.58
2022-12-12T00:04:08.677Z,42.85
2022-12-12T00:06:37.553Z,38.55
2022-12-12T00:09:06.422Z,40.22
2022-12-12T00:11:34.683Z,38.08
2022-12-12T00:14:02.957Z,42.03
2022-12-12T00:16:33.198Z,39.13
2022-12-12T00:19:01.430Z,39.22
2022-12-12T00:21:31.440Z,45.15
2022-12-12T00:24:00.791Z,39.13
2022-12-12T00:26:32.801Z,42.63
2022-12-12T00:29:03.098Z,43.22
2022-12-12T00:31:33.705Z,45.45
2022-12-12T00:34:01.986Z,42.80
2022-12-12T00:36:32.238Z,44.08
2022-12-12T00:39:02.349Z,47.58
2022-12-12T00:41:30.574Z,47.90
2022-12-12T00:43:58.855Z,45.30
2022-12-12T00:46:27.785Z,46.90
2022-12-12T00:48:59.586Z,49.08
2022-12-12T00:51:30.368Z,43.67
2022-12-12T00:53:59.633Z,47.55
2022-12-12T00:56:29.955Z,45.40
2022-12-12T00:58:58.205Z,48.05
2022-12-12T01:01:29.575Z,47.40
2022-12-12T01:03:59.838Z,44.17
2022-12-12T01:06:28.835Z,47.25
2022-12-12T01:08:57.061Z,49.78
2022-12-12T01:11:25.865Z,46.95
2022-12-12T01:13:56.263Z,50.08
2022-12-12T01:16:25.784Z,44.92
2022-12-12T01:18:54.397Z,46.60
2022-12-12T01:21:24.420Z,51.42
2022-12-12T01:23:52.963Z,51.72
2022-12-12T01:26:25.368Z,47.70
2022-12-12T01:28:54.303Z,43.03
2022-12-12T01:31:23.290Z,48.33
2022-12-12T01:33:51.873Z,49.42
2022-12-12T01:36:24.599Z,48.55
2022-12-12T01:38:57.009Z,50.45
2022-12-12T01:41:25.576Z,53.45
2022-12-12T01:43:54.805Z,49.25
2022-12-12T01:46:45.345Z,48.40
2022-12-12T01:49:22.222Z,53.17
2022-12-12T01:51:57.687Z,50.97
2022-12-12T01:54:30.408Z,47.72
2022-12-12T01:57:03.454Z,48.88
2022-12-12T01:59:33.238Z,51.80
2022-12-12T02:02:02.312Z,50.17
2022-12-12T02:04:30.665Z,56.08
2022-12-12T02:07:00.426Z,51.33
2022-12-12T02:09:28.815Z,57.53
2022-12-12T02:11:58.817Z,50.65
2022-12-12T02:14:31.320Z,50.97
2022-12-12T02:17:45.416Z,55.00
2022-12-12T02:20:53.916Z,51.85
2022-12-12T02:24:26.110Z,55.75
2022-12-12T02:27:26.985Z,52.15
2022-12-12T02:30:14.616Z,56.08
2022-12-12T02:33:14.159Z,49.70
2022-12-12T02:36:01.096Z,53.47
2022-12-12T02:38:32.958Z,51.22
2022-12-12T02:41:16.525Z,57.08
2022-12-12T02:43:55.218Z,55.83
2022-12-12T02:46:29.941Z,52.10
2022-12-12T02:49:04.801Z,57.10
2022-12-12T02:51:34.670Z,60.13
2022-12-12T02:54:05.793Z,54.65
2022-12-12T02:56:53.852Z,52.65
2022-12-12T02:59:29.913Z,54.08
2022-12-12T03:02:21.817Z,55.95
2022-12-12T03:05:41.575Z,54.03
2022-12-12T03:08:34.070Z,52.55
2022-12-12T03:11:07.857Z,55.72
2022-12-12T03:13:48.025Z,53.20
2022-12-12T03:16:26.709Z,54.55
2022-12-12T03:19:00.258Z,59.28
2022-12-12T03:21:38.315Z,60.15
2022-12-12T03:24:12.815Z,53.30
2022-12-12T03:26:47.018Z,54.30
2022-12-12T03:29:19.079Z,55.70
2022-12-12T03:31:52.929Z,58.75
2022-12-12T03:34:25.578Z,51.10
2022-12-12T03:36:59.028Z,52.28
2022-12-12T03:39:36.796Z,57.47
2022-12-12T03:42:10.552Z,54.78
2022-12-12T03:44:44.732Z,58.58
2022-12-12T03:47:18.932Z,58.17
2022-12-12T03:49:52.484Z,54.13
2022-12-12T03:52:29.871Z,53.85
2022-12-12T03:55:05.003Z,52.85
2022-12-12T03:57:38.389Z,52.17
2022-12-12T04:00:09.640Z,55.45
2022-12-12T04:02:43.447Z,54.20
2022-12-12T04:05:18.082Z,58.35
2022-12-12T04:07:53.806Z,56.33
2022-12-12T04:10:42.481Z,55.72
2022-12-12T04:13:21.129Z,50.92
2022-12-12T04:15:57.909Z,55.20
2022-12-12T04:18:37.769Z,55.88
2022-12-12T04:21:38.858Z,52.17
2022-12-12T04:24:19.130Z,57.03
2022-12-12T04:26:52.358Z,57.20
2022-12-12T04:29:35.194Z,50.72
2022-12-12T04:32:15.102Z,51.03
2022-12-12T04:34:50.211Z,60.55
2022-12-12T04:37:22.938Z,50.30
2022-12-12T04:39:56.785Z,54.95
2022-12-12T04:42:30.167Z,48.75
2022-12-12T04:45:06.844Z,52.95
2022-12-12T04:47:37.046Z,57.08
2022-12-12T04:50:09.546Z,53.47
2022-12-12T04:52:39.231Z,54.58
2022-12-12T04:55:14.641Z,53.60
2022-12-12T04:57:46.575Z,53.10
2022-12-12T05:00:16.500Z,50.63
2022-12-12T05:02:51.945Z,47.33
2022-12-12T05:05:27.040Z,48.65
2022-12-12T05:08:02.010Z,50.70
2022-12-12T05:10:32.093Z,51.65
2022-12-12T05:13:02.517Z,52.58
2022-12-12T05:15:31.700Z,51.35
2022-12-12T05:18:05.053Z,55.08
2022-12-12T05:20:33.475Z,52.03
2022-12-12T05:23:01.912Z,59.65
2022-12-12T05:25:32.121Z,52.97
2022-12-12T05:28:00.436Z,54.33
2022-12-12T05:30:29.151Z,53.05
2022-12-12T05:32:57.800Z,53.35
2022-12-12T05:35:26.539Z,50.45
2022-12-12T05:37:54.943Z,57.83
2022-12-12T05:40:24.148Z,53.20
2022-12-12T05:42:54.492Z,55.03
2022-12-12T05:45:23.566Z,52.85
2022-12-12T05:47:51.897Z,52.97
2022-12-12T05:50:20.631Z,55.92
2022-12-12T05:52:49.546Z,54.38
2022-12-12T05:55:18.119Z,52.17
2022-12-12T05:57:46.485Z,51.28
2022-12-12T06:00:17.265Z,51.80
2022-12-12T06:02:45.613Z,52.13
2022-12-12T06:05:14.683Z,48.47
2022-12-12T06:07:43.348Z,52.45
2022-12-12T06:10:12.172Z,54.13
2022-12-12T06:12:40.559Z,54.10
2022-12-12T06:15:10.782Z,52.22
2022-12-12T06:17:41.323Z,54.47
2022-12-12T06:20:10.783Z,48.58
2022-12-12T06:22:39.235Z,51.13
2022-12-12T06:25:09.420Z,51.20
2022-12-12T06:27:38.055Z,48.25
2022-12-12T06:30:08.405Z,49.45
2022-12-12T06:32:36.794Z,51.88
2022-12-12T06:35:07.720Z,50.90
2022-12-12T06:37:36.470Z,52.13
2022-12-12T06:40:05.828Z,51.97
2022-12-12T06:42:34.424Z,54.13
2022-12-12T06:45:04.224Z,49.83
2022-12-12T06:47:32.798Z,55.38
2022-12-12T06:50:01.118Z,54.45
2022-12-12T06:52:32.456Z,57.20
2022-12-12T06:55:00.886Z,52.25
2022-12-12T06:57:29.694Z,54.80
2022-12-12T06:59:58.317Z,52.80
2022-12-12T07:02:29.986Z,53.47
2022-12-12T07:04:59.280Z,54.03
2022-12-12T07:07:27.562Z,48.22
2022-12-12T07:09:57.162Z,47.35
2022-12-12T07:12:25.380Z,50.00
2022-12-12T07:14:53.835Z,59.00
2022-12-12T07:17:22.730Z,48.00
2022-12-12T07:19:50.976Z,52.33
2022-12-12T07:22:19.380Z,53.90
2022-12-12T07:24:47.758Z,48.92
2022-12-12T07:27:21.679Z,54.40
2022-12-12T07:29:50.369Z,49.17
2022-12-12T07:32:18.801Z,49.75
2022-12-12T07:34:47.095Z,53.47
2022-12-12T07:37:17.572Z,49.65
2022-12-12T07:39:45.995Z,54.33
2022-12-12T07:42:14.902Z,53.55
2022-12-12T07:44:44.838Z,51.15
2022-12-12T07:47:13.568Z,48.97
2022-12-12T07:49:41.972Z,49.75
2022-12-12T07:52:10.630Z,48.95
2022-12-12T07:54:39.574Z,47.53
2022-12-12T07:57:08.046Z,51.05
2022-12-12T07:59:36.507Z,55.22
2022-12-12T08:02:06.238Z,56.50
2022-12-12T08:04:34.708Z,49.65
2022-12-12T08:07:08.281Z,53.40
2022-12-12T08:09:37.977Z,53.22
2022-12-12T08:12:06.772Z,55.78
2022-12-12T08:14:35.098Z,57.75
2022-12-12T08:17:03.773Z,57.95
2022-12-12T08:19:33.928Z,54.63
2022-12-12T08:22:02.135Z,58.35
2022-12-12T08:24:30.821Z,53.67
2022-12-12T08:26:59.196Z,58.60
2022-12-12T08:29:27.474Z,48.88
2022-12-12T08:31:55.907Z,51.63
2022-12-12T08:34:24.866Z,53.15
2022-12-12T08:36:55.128Z,51.83
2022-12-12T08:39:23.521Z,48.42
2022-12-12T08:41:52.187Z,47.55
2022-12-12T08:44:22.430Z,47.63
2022-12-12T08:46:50.897Z,56.67
2022-12-12T08:49:19.377Z,50.15
2022-12-12T08:51:47.852Z,52.03
2022-12-12T08:54:17.957Z,55.30
2022-12-12T08:56:48.045Z,48.08
2022-12-12T08:59:16.406Z,52.25
2022-12-12T09:01:45.010Z,49.13
2022-12-12T09:04:13.599Z,49.28
2022-12-12T09:06:41.851Z,51.63
2022-12-12T09:09:10.518Z,46.30
2022-12-12T09:11:40.306Z,45.83
2022-12-12T09:14:08.666Z,52.13
2022-12-12T09:16:37.136Z,47.08
2022-12-12T09:19:05.530Z,51.08
2022-12-12T09:21:34.952Z,50.78
2022-12-12T09:24:03.543Z,52.58
2022-12-12T09:26:32.175Z,50.10
2022-12-12T09:29:02.459Z,52.83
2022-12-12T09:31:31.231Z,48.00
2022-12-12T09:34:00.256Z,51.42
2022-12-12T09:36:28.855Z,48.05
2022-12-12T09:38:57.311Z,49.75
2022-12-12T09:41:28.288Z,48.65
2022-12-12T09:44:03.389Z,50.90
2022-12-12T09:46:40.062Z,46.85
2022-12-12T09:49:19.019Z,45.30
2022-12-12T09:51:51.077Z,50.13
2022-12-12T09:54:23.246Z,52.08
2022-12-12T09:57:24.605Z,45.63
2022-12-12T10:00:03.849Z,45.42
2022-12-12T10:02:53.556Z,47.30
2022-12-12T10:05:35.977Z,46.30
2022-12-12T10:08:17.127Z,44.72
2022-12-12T10:10:50.178Z,48.80
2022-12-12T10:13:23.723Z,48.40
2022-12-12T10:15:57.477Z,47.95
2022-12-12T10:18:32.451Z,46.88
2022-12-12T10:21:05.816Z,46.10
2022-12-12T10:23:40.109Z,44.58
2022-12-12T10:26:14.854Z,45.90
2022-12-12T10:28:43.572Z,47.70
2022-12-12T10:31:29.010Z,46.58
2022-12-12T10:34:17.155Z,45.03
2022-12-12T10:37:23.207Z,49.78
2022-12-12T10:40:02.447Z,52.40
2022-12-12T10:42:39.805Z,55.78
2022-12-12T10:45:32.853Z,46.78
2022-12-12T10:48:03.475Z,44.50
2022-12-12T10:50:40.202Z,43.45
2022-12-12T10:53:13.410Z,42.60
2022-12-12T10:55:53.223Z,45.20
2022-12-12T10:58:27.226Z,43.38
2022-12-12T11:01:04.099Z,40.63
2022-12-12T11:03:41.023Z,43.10
2022-12-12T11:06:17.658Z,42.22
2022-12-12T11:08:56.768Z,45.63
2022-12-12T11:11:27.227Z,40.42
2022-12-12T11:13:59.701Z,49.35
2022-12-12T11:16:30.692Z,45.25
2022-12-12T11:19:21.053Z,48.13
2022-12-12T11:21:50.102Z,42.55
2022-12-12T11:24:22.145Z,44.92
2022-12-12T11:26:58.159Z,45.17
2022-12-12T11:29:36.532Z,40.15
2022-12-12T11:32:06.213Z,47.13
2022-12-12T11:34:39.373Z,40.45
2022-12-12T11:37:08.028Z,45.28
2022-12-12T11:39:43.798Z,46.58
2022-12-12T11:42:22.569Z,45.08
2022-12-12T11:45:01.888Z,39.35
2022-12-12T11:47:38.892Z,35.85
2022-12-12T11:50:25.355Z,38.38
2022-12-12T11:52:55.996Z,40.80
2022-12-12T12:01:48.742Z,39.22
2022-12-12T12:04:32.528Z,35.58
2022-12-12T12:07:24.818Z,38.67
2022-12-12T12:10:01.700Z,38.50
2022-12-12T12:12:44.473Z,38.83
2022-12-12T12:15:33.590Z,38.15
2022-12-12T12:18:38.744Z,36.30
2022-12-12T12:21:28.815Z,34.90
2022-12-12T12:24:22.463Z,36.30
2022-12-12T12:27:01.918Z,35.08
2022-12-12T12:30:09.767Z,37.75
2022-12-12T12:32:55.488Z,32.53
2022-12-12T12:35:31.291Z,33.97
2022-12-12T12:38:24.079Z,32.30
2022-12-12T12:41:20.733Z,34.03
2022-12-12T12:44:15.925Z,33.55
2022-12-12T12:46:54.460Z,32.83
2022-12-12T12:49:29.115Z,32.95
2022-12-12T12:52:03.385Z,30.42
2022-12-12T12:54:37.552Z,33.20
2022-12-12T12:57:12.529Z,31.23
2022-12-12T12:59:45.671Z,34.22
2022-12-12T13:02:27.273Z,38.65
2022-12-12T13:05:07.495Z,31.38
2022-12-12T13:07:44.556Z,30.40
2022-12-12T13:10:23.322Z,36.28
2022-12-12T13:12:59.078Z,29.30
2022-12-12T13:15:32.687Z,32.13
2022-12-12T13:18:04.547Z,33.50
2022-12-12T13:20:36.595Z,28.40
2022-12-12T13:23:30.133Z,32.45
2022-12-12T13:26:04.177Z,28.98
2022-12-12T13:28:38.776Z,30.05
2022-12-12T13:31:33.118Z,31.05
2022-12-12T13:34:06.419Z,33.53
2022-12-12T13:36:39.065Z,32.58
2022-12-12T13:39:12.213Z,30.02
2022-12-12T13:41:59.134Z,32.80
2022-12-12T13:44:44.495Z,31.48
2022-12-12T13:47:48.205Z,28.67
2022-12-12T13:50:22.821Z,34.15
2022-12-12T13:53:19.445Z,29.17
2022-12-12T13:55:48.410Z,35.08
2022-12-12T13:58:35.613Z,28.95
2022-12-12T14:01:40.586Z,28.38
2022-12-12T14:04:28.452Z,30.00
2022-12-12T14:07:03.051Z,31.52
2022-12-12T14:09:47.898Z,33.17
2022-12-12T14:12:26.070Z,29.48
2022-12-12T14:14:59.440Z,32.55
2022-12-12T14:17:40.114Z,29.85
2022-12-12T14:20:28.595Z,30.67
2022-12-12T14:23:27.208Z,29.88
2022-12-12T14:26:22.464Z,33.80
2022-12-12T14:29:29.016Z,30.17
2022-12-12T14:32:25.306Z,30.48
2022-12-12T14:35:07.260Z,29.88
2022-12-12T14:37:51.633Z,30.42
2022-12-12T14:40:24.264Z,31.55
2022-12-12T14:43:19.119Z,32.20
2022-12-12T14:45:58.764Z,30.73
2022-12-12T14:48:29.331Z,30.25
2022-12-12T14:51:10.606Z,27.58
2022-12-12T14:53:49.885Z,28.95
2022-12-12T14:56:21.958Z,29.27
2022-12-12T14:58:58.565Z,27.63
2022-12-12T15:01:34.426Z,28.30
2022-12-12T15:04:07.480Z,29.13
2022-12-12T15:06:41.460Z,28.23
2022-12-12T15:09:21.753Z,31.60
2022-12-12T15:11:51.023Z,30.25
2022-12-12T15:14:24.200Z,31.40
2022-12-12T15:16:57.765Z,29.75
2022-12-12T15:19:31.675Z,30.60
2022-12-12T15:22:01.523Z,31.15
2022-12-12T15:24:39.018Z,28.98
2022-12-12T15:27:08.182Z,30.73
2022-12-12T15:29:38.782Z,31.15
2022-12-12T15:32:11.034Z,32.55
2022-12-12T15:34:46.463Z,33.33
2022-12-12T15:37:29.897Z,35.15
2022-12-12T15:40:26.973Z,33.53
2022-12-12T15:42:59.144Z,33.67
2022-12-12T15:45:33.653Z,35.65
2022-12-12T15:48:02.395Z,36.92
2022-12-12T15:50:53.739Z,38.10
2022-12-12T15:53:26.816Z,37.55
2022-12-12T15:56:01.640Z,37.25
2022-12-12T15:58:34.145Z,36.67
2022-12-12T16:01:07.096Z,33.80
2022-12-12T16:03:35.896Z,36.33
2022-12-12T16:06:17.126Z,33.72
2022-12-12T16:08:55.760Z,38.58
2022-12-12T16:11:43.182Z,37.05
2022-12-12T16:14:43.207Z,38.67
2022-12-12T16:17:15.352Z,37.45
2022-12-12T16:19:53.959Z,37.20
2022-12-12T16:22:35.328Z,37.80
2022-12-12T16:25:22.352Z,38.00
2022-12-12T16:27:57.656Z,33.92
2022-12-12T16:30:27.167Z,36.15
2022-12-12T16:32:56.015Z,38.70
2022-12-12T16:35:26.195Z,35.92
2022-12-12T16:37:54.852Z,40.20
2022-12-12T16:40:24.650Z,33.15
2022-12-12T16:42:57.859Z,36.40
2022-12-12T16:45:26.222Z,39.15
2022-12-12T16:47:55.431Z,36.65
2022-12-12T16:50:23.959Z,44.00
2022-12-12T16:52:52.223Z,45.78
2022-12-12T16:55:25.378Z,50.38
2022-12-12T16:57:54.110Z,45.83
2022-12-12T17:00:23.239Z,47.38
2022-12-12T17:02:51.766Z,51.47
2022-12-12T17:05:24.437Z,56.67
2022-12-12T17:07:54.201Z,56.10
2022-12-12T17:10:26.217Z,53.97
2022-12-12T17:12:55.677Z,63.22
2022-12-12T17:15:27.371Z,84.43
2022-12-12T17:17:56.263Z,78.70
2022-12-12T17:20:28.597Z,80.60
2022-12-12T17:26:00.741Z,66.05
2022-12-12T17:28:32.847Z,57.05
2022-12-12T17:31:01.778Z,55.92
2022-12-12T17:33:58.777Z,48.63
2022-12-12T17:36:27.259Z,53.72
2022-12-12T17:38:55.802Z,52.72
2022-12-12T17:41:25.451Z,44.17
2022-12-12T17:43:56.917Z,52.28
2022-12-12T17:46:28.858Z,45.22
2022-12-12T17:49:01.891Z,48.65
2022-12-12T17:51:31.202Z,42.50
2022-12-12T17:54:00.216Z,45.63
2022-12-12T17:56:30.003Z,47.38
2022-12-12T17:58:58.361Z,47.83
2022-12-12T18:01:29.262Z,47.33
2022-12-12T18:03:59.623Z,41.35
2022-12-12T18:06:31.779Z,41.90
2022-12-12T18:09:00.821Z,41.92
2022-12-12T18:11:33.333Z,38.70
2022-12-12T18:14:04.867Z,42.20
2022-12-12T18:16:34.641Z,43.33
2022-12-12T18:19:03.639Z,39.13
2022-12-12T18:21:59.944Z,45.72
2022-12-12T18:24:29.287Z,43.78
2022-12-12T18:27:03.514Z,46.38
2022-12-12T18:29:32.372Z,41.58
2022-12-12T18:32:01.330Z,36.97
2022-12-12T18:34:30.381Z,48.70
2022-12-12T18:36:58.703Z,42.92
2022-12-12T18:39:27.209Z,43.80
2022-12-12T18:41:55.551Z,41.28
2022-12-12T18:44:25.336Z,41.38
2022-12-12T18:46:53.625Z,40.05
2022-12-12T18:49:21.981Z,42.00
2022-12-12T18:51:50.327Z,41.08
2022-12-12T18:54:18.695Z,46.03
2022-12-12T18:56:48.116Z,38.45
2022-12-12T18:59:17.635Z,38.53
2022-12-12T19:01:48.196Z,44.80
2022-12-12T19:04:22.816Z,42.40
2022-12-12T19:06:54.613Z,42.85
2022-12-12T19:09:23.426Z,44.47
2022-12-12T19:11:56.891Z,42.90
2022-12-12T19:14:46.035Z,41.70
2022-12-12T19:17:25.324Z,39.97
2022-12-12T19:20:01.660Z,38.83
2022-12-12T19:22:45.046Z,37.60
2022-12-12T19:25:14.908Z,37.08
2022-12-12T19:27:43.821Z,41.70
2022-12-12T19:30:17.517Z,41.97
2022-12-12T19:32:49.062Z,41.72
2022-12-12T19:35:18.198Z,41.17
2022-12-12T19:37:47.316Z,35.35
2022-12-12T19:40:17.402Z,42.70
2022-12-12T19:42:46.109Z,37.17
2022-12-12T19:45:17.000Z,37.83
2022-12-12T19:47:47.496Z,37.65
2022-12-12T19:50:16.247Z,37.25
2022-12-12T19:52:45.371Z,45.08
2022-12-12T19:55:13.730Z,45.60
2022-12-12T19:57:42.204Z,43.40
2022-12-12T20:00:15.069Z,38.45
2022-12-12T20:02:44.153Z,39.15
2022-12-12T20:05:13.900Z,42.15
2022-12-12T20:07:44.002Z,40.03
2022-12-12T20:10:13.186Z,38.63
2022-12-12T20:12:51.816Z,37.22
2022-12-12T20:15:24.620Z,41.95
2022-12-12T20:17:52.924Z,44.30
2022-12-12T20:20:22.591Z,42.70
2022-12-12T20:22:50.976Z,38.78
2022-12-12T20:25:19.627Z,41.80
2022-12-12T20:27:47.945Z,42.65
2022-12-12T20:30:16.706Z,42.88
2022-12-12T20:32:48.306Z,46.38
2022-12-12T20:35:16.803Z,42.70
2022-12-12T20:37:46.486Z,39.70
2022-12-12T20:40:15.342Z,43.88
2022-12-12T20:42:47.316Z,38.85
2022-12-12T20:45:18.753Z,41.20
2022-12-12T20:47:47.092Z,40.60
2022-12-12T20:50:15.554Z,43.50
2022-12-12T20:52:45.622Z,39.65
2022-12-12T20:55:14.399Z,43.30
2022-12-12T20:57:43.023Z,41.97
2022-12-12T21:00:13.534Z,45.13
2022-12-12T21:02:45.445Z,39.10
2022-12-12T21:05:13.997Z,40.15
2022-12-12T21:07:42.933Z,45.67
2022-12-12T21:10:13.060Z,41.72
2022-12-12T21:12:41.627Z,41.95
2022-12-12T21:15:11.490Z,44.30
2022-12-12T21:17:40.087Z,43.97
2022-12-12T21:20:14.360Z,43.58
2022-12-12T21:22:42.876Z,45.05
2022-12-12T21:25:12.974Z,42.90
2022-12-12T21:27:41.787Z,46.88
2022-12-12T21:30:11.236Z,46.30
2022-12-12T21:32:42.958Z,44.35
2022-12-12T21:35:12.405Z,41.90
2022-12-12T21:37:41.272Z,43.58
2022-12-12T21:40:13.539Z,45.38
2022-12-12T21:42:41.805Z,45.13
2022-12-12T21:45:12.338Z,43.40
2022-12-12T21:47:41.039Z,46.55
2022-12-12T21:50:11.270Z,53.65
2022-12-12T21:52:39.748Z,50.13
2022-12-12T21:55:09.536Z,61.20
2022-12-12T21:57:39.649Z,62.65
2022-12-12T22:00:10.497Z,54.95
2022-12-12T22:02:38.901Z,54.75
2022-12-12T22:05:08.235Z,60.90
2022-12-12T22:07:36.555Z,56.03
2022-12-12T22:10:11.022Z,65.13
2022-12-12T22:12:41.271Z,63.78
2022-12-12T22:15:10.651Z,54.83
2022-12-12T22:17:39.077Z,56.63
2022-12-12T22:20:08.630Z,51.92
2022-12-12T22:22:36.879Z,54.95
2022-12-12T22:25:05.871Z,50.63
2022-12-12T22:27:35.051Z,48.33
2022-12-12T22:30:05.513Z,51.67
2022-12-12T22:32:33.790Z,60.55
2022-12-12T22:35:02.061Z,50.90
2022-12-12T22:37:30.304Z,53.97
2022-12-12T22:39:58.599Z,53.25
2022-12-12T22:42:26.893Z,60.78
2022-12-12T22:44:55.162Z,57.75
2022-12-12T22:47:24.956Z,68.72
2022-12-12T22:49:54.116Z,55.50
2022-12-12T22:52:22.396Z,57.90
2022-12-12T22:54:50.701Z,56.15
2022-12-12T22:57:19.292Z,54.45
2022-12-12T22:59:47.704Z,55.00
2022-12-12T23:02:20.106Z,57.80
2022-12-12T23:04:53.412Z,54.28
2022-12-12T23:07:21.902Z,53.53
2022-12-12T23:09:53.468Z,45.78
2022-12-12T23:12:22.630Z,46.25
2022-12-12T23:14:51.035Z,45.28
2022-12-12T23:17:19.229Z,48.95
2022-12-12T23:19:47.896Z,47.70
2022-12-12T23:22:17.873Z,42.53
2022-12-12T23:24:46.244Z,41.80
2022-12-12T23:27:14.712Z,41.40
2022-12-12T23:29:43.169Z,38.63
2022-12-12T23:32:11.459Z,41.10
2022-12-12T23:34:39.745Z,38.30
2022-12-12T23:37:08.057Z,40.95
2022-12-12T23:39:37.918Z,41.15
2022-12-12T23:42:06.319Z,40.88
2022-12-12T23:44:34.709Z,43.60
2022-12-12T23:47:02.926Z,36.30
2022-12-12T23:49:31.182Z,42.33
2022-12-12T23:52:00.629Z,38.95
2022-12-12T23:54:32.561Z,37.28
2022-12-12T23:57:03.559Z,36.92
2022-12-12T23:59:32.154Z,38.00
